Time;durP1;ratioP1;P1;durP2;ratioP2;P2;SDS_P1;SDS_P2;PMS_P1;PMS_P2;Temp;Humidity;BMP_temperature;BMP_pressure;BME280_temperature;BME280_humidity;BME280_pressure;Samples;Min_cycle;Max_cycle;Signal;HPM_P1;HPM_P2
2022/07/16 00:02:58;;;;;;;;;;;;;;;24.66;39.64;102134.59;7281201;19;151616;-59
2022/07/16 00:05:25;;;;;;;;;;;;;;;24.76;39.52;102140.03;7281147;19;152598;-58
2022/07/16 00:07:52;;;;;;;;;;;;;;;24.58;39.75;102146.56;7280862;19;153289;-58
2022/07/16 00:10:19;;;;;;;;;;;;;;;24.59;39.91;102148.25;7280191;19;152793;-59
2022/07/16 00:12:45;;;;;;;;;;;;;;;24.63;39.73;102138.00;7286737;19;153043;-58
2022/07/16 00:15:12;;;;;;;;;;;;;;;24.72;39.44;102141.81;7277641;19;152011;-60
2022/07/16 00:17:39;;;;;;;;;;;;;;;24.68;39.61;102148.38;7281911;19;152643;-59
2022/07/16 00:20:06;;;;;;;;;;;;;;;24.58;39.70;102149.38;7279103;19;152342;-59
2022/07/16 00:22:33;;;;;;;;;;;;;;;24.53;40.20;102146.63;7281872;19;152182;-60
2022/07/16 00:25:00;;;;;;;;;;;;;;;24.55;39.60;102144.34;7279312;19;152215;-60
2022/07/16 00:27:26;;;;;;;;;;;;;;;24.51;39.53;102137.66;7279052;19;153557;-61
2022/07/16 00:29:53;;;;;;;;;;;;;;;24.56;39.81;102142.38;7280205;19;152047;-60
2022/07/16 00:32:20;;;;;;;;;;;;;;;24.56;39.77;102148.88;7280931;19;153497;-60
2022/07/16 00:34:46;;;;;;;;;;;;;;;24.49;39.78;102153.22;7283758;19;153981;-60
2022/07/16 00:37:13;;;;;;;;;;;;;;;24.51;39.74;102153.75;7279870;19;153628;-60
2022/07/16 00:39:40;;;;;;;;;;;;;;;24.47;39.88;102156.38;7277470;19;153667;-60
2022/07/16 00:42:07;;;;;;;;;;;;;;;24.50;39.91;102152.91;7279474;19;152805;-60
2022/07/16 00:44:34;;;;;;;;;;;;;;;24.48;39.87;102160.88;7280403;19;152587;-61
2022/07/16 00:47:00;;;;;;;;;;;;;;;24.46;40.36;102162.31;7277640;19;153522;-61
2022/07/16 00:49:27;;;;;;;;;;;;;;;24.50;39.95;102160.53;7280395;19;151885;-59
2022/07/16 00:51:54;;;;;;;;;;;;;;;24.44;40.05;102171.06;7278404;19;154603;-60
2022/07/16 00:54:21;;;;;;;;;;;;;;;24.41;40.34;102162.38;7276310;19;154230;-60
2022/07/16 00:56:47;;;;;;;;;;;;;;;24.41;40.27;102165.22;7284523;19;153342;-61
2022/07/16 00:59:14;;;;;;;;;;;;;;;24.44;40.27;102162.59;7278447;19;153691;-60
2022/07/16 01:01:41;;;;;;;;;;;;;;;24.38;39.98;102169.50;7279681;19;151852;-60
2022/07/16 01:04:11;;;;;;;;;;;;;;;24.40;40.11;102167.19;7280965;19;157762;-60
2022/07/16 01:06:39;;;;;;;;;;;;;;;24.34;40.46;102169.28;7277305;19;152209;-59
2022/07/16 01:09:05;;;;;;;;;;;;;;;24.36;40.48;102161.31;7279849;19;152734;-60
2022/07/16 01:11:33;;;;;;;;;;;;;;;24.34;40.57;102163.63;7276747;19;152293;-60
2022/07/16 01:14:00;;;;;;;;;;;;;;;24.49;40.31;102158.84;7276074;19;153427;-60
2022/07/16 01:16:27;;;;;;;;;;;;;;;24.36;40.54;102158.50;7279904;19;153891;-61
2022/07/16 01:18:54;;;;;;;;;;;;;;;24.32;40.58;102154.59;7288035;19;152605;-61
2022/07/16 01:21:20;;;;;;;;;;;;;;;24.29;40.59;102160.88;7276148;19;153814;-61
2022/07/16 01:23:49;;;;;;;;;;;;;;;24.42;40.62;102158.41;7278473;19;152179;-60
2022/07/16 01:26:16;;;;;;;;;;;;;;;24.34;40.53;102159.94;7278031;19;153402;-61
2022/07/16 01:28:44;;;;;;;;;;;;;;;24.30;40.48;102156.88;7279572;19;151834;-60
2022/07/16 01:31:11;;;;;;;;;;;;;;;24.26;40.58;102169.94;7277788;19;152465;-61
2022/07/16 01:33:39;;;;;;;;;;;;;;;24.27;40.58;102165.97;7276213;19;154102;-60
2022/07/16 01:36:07;;;;;;;;;;;;;;;24.22;40.58;102162.38;7274414;19;154183;-60
2022/07/16 01:38:34;;;;;;;;;;;;;;;24.19;40.63;102169.47;7278940;19;153856;-61
2022/07/16 01:41:00;;;;;;;;;;;;;;;24.27;40.93;102170.78;7285073;19;153278;-60
2022/07/16 01:43:28;;;;;;;;;;;;;;;24.25;41.14;102173.91;7278858;19;152756;-61
2022/07/16 01:46:03;;;;;;;;;;;;;;;24.18;40.78;102181.06;7276501;19;153245;-60
2022/07/16 01:48:30;;;;;;;;;;;;;;;24.15;40.85;102176.84;7278842;19;152910;-60
2022/07/16 01:50:58;;;;;;;;;;;;;;;24.18;41.04;102172.59;7278890;19;153432;-60
2022/07/16 01:53:25;;;;;;;;;;;;;;;24.26;40.81;102178.41;7275039;19;154088;-60
2022/07/16 01:55:52;;;;;;;;;;;;;;;24.09;41.12;102171.56;7277717;19;152311;-60
2022/07/16 01:58:18;;;;;;;;;;;;;;;24.20;40.84;102168.34;7277678;19;153664;-60
2022/07/16 02:00:45;;;;;;;;;;;;;;;24.17;41.36;102171.75;7283355;19;154045;-61
2022/07/16 02:03:12;;;;;;;;;;;;;;;24.11;41.38;102174.94;7281382;19;153083;-60
2022/07/16 02:05:40;;;;;;;;;;;;;;;24.05;41.44;102174.16;7281602;19;154137;-60
2022/07/16 02:08:07;;;;;;;;;;;;;;;24.06;41.24;102175.84;7284812;19;152432;-60
2022/07/16 02:10:34;;;;;;;;;;;;;;;24.03;41.72;102178.44;7283600;19;152710;-61
2022/07/16 02:13:01;;;;;;;;;;;;;;;23.94;41.74;102179.09;7284145;19;154834;-60
2022/07/16 02:15:27;;;;;;;;;;;;;;;23.96;41.03;102181.63;7281646;19;152453;-60
2022/07/16 02:17:54;;;;;;;;;;;;;;;23.99;42.02;102186.66;7286207;19;153024;-60
2022/07/16 02:20:21;;;;;;;;;;;;;;;24.00;41.84;102182.69;7283197;19;153740;-60
2022/07/16 02:22:48;;;;;;;;;;;;;;;23.93;42.03;102185.06;7289530;19;155165;-60
2022/07/16 02:25:14;;;;;;;;;;;;;;;23.96;41.88;102183.59;7283155;19;154292;-60
2022/07/16 02:28:06;;;;;;;;;;;;;;;23.98;41.74;102192.63;7282804;19;151668;-60
2022/07/16 02:30:28;;;;;;;;;;;;;;;24.03;41.92;102190.53;7283385;19;152929;-60
2022/07/16 02:32:54;;;;;;;;;;;;;;;23.95;41.82;102188.41;7283748;19;154009;-59
2022/07/16 02:35:21;;;;;;;;;;;;;;;23.96;42.06;102189.25;7282935;19;154420;-60
2022/07/16 02:37:48;;;;;;;;;;;;;;;23.90;41.51;102182.81;7283686;19;152588;-59
2022/07/16 02:40:15;;;;;;;;;;;;;;;23.87;41.58;102183.44;7282769;19;152830;-60
2022/07/16 02:42:42;;;;;;;;;;;;;;;23.90;41.62;102180.84;7283714;19;152541;-60
2022/07/16 02:45:10;;;;;;;;;;;;;;;23.83;41.64;102176.72;7289338;19;152634;-59
2022/07/16 02:47:37;;;;;;;;;;;;;;;23.85;41.62;102180.06;7283641;19;152188;-60
2022/07/16 02:50:08;;;;;;;;;;;;;;;23.83;42.06;102190.81;7284136;19;153257;-60
2022/07/16 02:52:35;;;;;;;;;;;;;;;23.81;41.96;102188.28;7283025;19;154313;-60
2022/07/16 02:55:03;;;;;;;;;;;;;;;23.82;41.82;102186.31;7281497;19;152452;-58
2022/07/16 02:57:30;;;;;;;;;;;;;;;23.79;41.65;102186.91;7282701;19;152588;-59
2022/07/16 02:59:57;;;;;;;;;;;;;;;23.77;42.21;102192.00;7281728;19;154604;-60
2022/07/16 03:02:23;;;;;;;;;;;;;;;23.75;41.70;102192.34;7282991;19;152139;-59
2022/07/16 03:04:50;;;;;;;;;;;;;;;23.75;41.57;102197.13;7284446;19;154331;-59
2022/07/16 03:07:20;;;;;;;;;;;;;;;23.73;42.36;102196.59;7286791;19;153589;-60
2022/07/16 03:09:47;;;;;;;;;;;;;;;23.73;42.59;102191.78;7282921;19;153285;-61
2022/07/16 03:12:13;;;;;;;;;;;;;;;23.76;41.95;102198.78;7280170;19;154280;-59
2022/07/16 03:14:40;;;;;;;;;;;;;;;23.67;42.49;102192.97;7280057;19;153438;-59
2022/07/16 03:17:07;;;;;;;;;;;;;;;23.66;42.69;102190.47;7283313;19;152623;-60
2022/07/16 03:19:34;;;;;;;;;;;;;;;23.62;42.29;102197.84;7282216;19;152736;-59
2022/07/16 03:22:00;;;;;;;;;;;;;;;23.63;42.37;102191.88;7280963;19;152330;-59
2022/07/16 03:24:27;;;;;;;;;;;;;;;23.67;42.50;102206.22;7282912;19;152581;-59
2022/07/16 03:26:54;;;;;;;;;;;;;;;23.67;42.41;102200.59;7280476;19;153171;-59
2022/07/16 03:29:27;;;;;;;;;;;;;;;23.63;42.54;102196.69;7289643;19;151746;-59
2022/07/16 03:31:54;;;;;;;;;;;;;;;23.57;42.96;102197.91;7282194;19;154150;-59
2022/07/16 03:34:21;;;;;;;;;;;;;;;23.59;42.49;102207.75;7282127;19;152092;-59
2022/07/16 03:36:47;;;;;;;;;;;;;;;23.56;43.17;102207.50;7282046;19;153040;-60
2022/07/16 03:39:14;;;;;;;;;;;;;;;23.58;42.76;102189.13;7280861;19;153253;-60
2022/07/16 03:41:41;;;;;;;;;;;;;;;23.51;42.73;102187.81;7282053;19;152233;-60
2022/07/16 03:44:08;;;;;;;;;;;;;;;23.51;42.89;102177.38;7281251;19;153473;-59
2022/07/16 03:46:35;;;;;;;;;;;;;;;23.54;42.77;102178.72;7281092;19;153817;-59
2022/07/16 03:49:02;;;;;;;;;;;;;;;23.51;43.22;102180.19;7282368;19;152500;-60
2022/07/16 03:51:29;;;;;;;;;;;;;;;23.52;43.06;102186.66;7287567;19;153606;-60
2022/07/16 03:53:56;;;;;;;;;;;;;;;23.53;43.10;102182.72;7281270;19;152008;-59
2022/07/16 03:56:24;;;;;;;;;;;;;;;23.58;42.96;102183.47;7281921;19;153182;-59
2022/07/16 03:58:51;;;;;;;;;;;;;;;23.46;43.59;102181.06;7280638;19;153537;-59
2022/07/16 04:01:18;;;;;;;;;;;;;;;23.48;43.23;102180.78;7281837;19;152293;-59
2022/07/16 04:03:45;;;;;;;;;;;;;;;23.45;43.22;102178.53;7283261;19;153198;-59
2022/07/16 04:06:12;;;;;;;;;;;;;;;23.47;42.80;102179.94;7278954;19;153433;-59
2022/07/16 04:08:38;;;;;;;;;;;;;;;23.49;42.92;102169.19;7280965;19;151884;-59
2022/07/16 04:11:05;;;;;;;;;;;;;;;23.48;42.91;102170.31;7288098;19;152878;-59
2022/07/16 04:13:32;;;;;;;;;;;;;;;23.48;42.83;102172.34;7278625;19;152395;-59
2022/07/16 04:15:59;;;;;;;;;;;;;;;23.41;43.31;102168.97;7277925;19;153064;-58
2022/07/16 04:18:26;;;;;;;;;;;;;;;23.45;43.03;102167.25;7281017;19;154318;-58
2022/07/16 04:20:52;;;;;;;;;;;;;;;23.48;43.23;102173.13;7281912;19;152632;-58
2022/07/16 04:23:19;;;;;;;;;;;;;;;23.47;43.17;102173.47;7280767;19;153505;-57
2022/07/16 04:25:46;;;;;;;;;;;;;;;23.43;43.01;102172.34;7277367;19;154082;-58
2022/07/16 04:28:13;;;;;;;;;;;;;;;23.43;42.71;102172.34;7281034;19;152257;-59
2022/07/16 04:30:39;;;;;;;;;;;;;;;23.43;42.86;102187.28;7279336;19;151883;-59
2022/07/16 04:33:06;;;;;;;;;;;;;;;23.34;43.05;102182.59;7286678;19;154412;-59
2022/07/16 04:35:34;;;;;;;;;;;;;;;23.36;43.30;102189.59;7278564;19;153878;-59
2022/07/16 04:38:00;;;;;;;;;;;;;;;23.41;43.35;102185.91;7279703;19;153877;-59
2022/07/16 04:40:27;;;;;;;;;;;;;;;23.37;42.93;102185.66;7280483;19;152427;-59
2022/07/16 04:42:54;;;;;;;;;;;;;;;23.40;42.95;102178.56;7280901;19;153785;-58
2022/07/16 04:45:20;;;;;;;;;;;;;;;23.36;43.03;102186.78;7279773;19;154380;-58
2022/07/16 04:47:47;;;;;;;;;;;;;;;23.36;43.34;102186.78;7280767;19;152265;-59
2022/07/16 04:50:14;;;;;;;;;;;;;;;23.35;43.10;102175.78;7280209;19;152757;-58
2022/07/16 04:52:41;;;;;;;;;;;;;;;23.31;43.11;102178.38;7276889;19;152435;-59
2022/07/16 04:55:08;;;;;;;;;;;;;;;23.29;43.27;102179.81;7286488;19;152900;-58
2022/07/16 04:57:34;;;;;;;;;;;;;;;23.27;43.45;102177.28;7278840;19;153889;-58
2022/07/16 05:00:01;;;;;;;;;;;;;;;23.29;43.77;102177.00;7279542;19;152467;-58
2022/07/16 05:05:13;;;;;;;;;;;;;;;23.23;43.84;102181.00;7278085;19;154453;-59
2022/07/16 05:07:40;;;;;;;;;;;;;;;23.26;43.75;102177.63;7278804;19;152491;-59
2022/07/16 05:10:07;;;;;;;;;;;;;;;23.23;43.30;102179.03;7279690;19;152363;-60
2022/07/16 05:12:34;;;;;;;;;;;;;;;23.28;43.01;102178.13;7277654;19;154201;-60
2022/07/16 05:15:01;;;;;;;;;;;;;;;23.26;43.45;102180.44;7278337;19;152574;-60
2022/07/16 05:17:27;;;;;;;;;;;;;;;23.34;43.37;102183.44;7285749;19;154005;-60
2022/07/16 05:19:54;;;;;;;;;;;;;;;23.19;43.76;102189.22;7280375;19;151921;-60
2022/07/16 05:22:21;;;;;;;;;;;;;;;23.17;43.89;102199.13;7276853;19;153414;-60
2022/07/16 05:24:48;;;;;;;;;;;;;;;23.13;43.98;102212.94;7278543;19;154155;-59
2022/07/16 05:27:14;;;;;;;;;;;;;;;23.17;43.85;102204.78;7278825;19;152092;-59
2022/07/16 05:29:41;;;;;;;;;;;;;;;23.19;43.91;102216.56;7279079;19;152534;-60
2022/07/16 05:32:08;;;;;;;;;;;;;;;23.12;44.33;102214.13;7277730;19;154188;-60
2022/07/16 05:34:34;;;;;;;;;;;;;;;23.11;44.25;102225.69;7279186;19;152427;-61
2022/07/16 05:37:01;;;;;;;;;;;;;;;23.06;44.31;102220.91;7280446;19;152569;-61
2022/07/16 05:39:29;;;;;;;;;;;;;;;23.03;44.39;102216.69;7292826;19;154133;-60
2022/07/16 05:41:56;;;;;;;;;;;;;;;23.02;44.58;102217.84;7283960;19;153472;-59
2022/07/16 05:44:23;;;;;;;;;;;;;;;23.03;44.58;102224.34;7284926;19;153574;-60
2022/07/16 05:46:50;;;;;;;;;;;;;;;22.97;44.56;102217.06;7283417;19;152562;-59
2022/07/16 05:49:16;;;;;;;;;;;;;;;23.07;44.59;102221.78;7286274;19;154191;-60
2022/07/16 05:51:43;;;;;;;;;;;;;;;23.03;44.41;102221.53;7281043;19;153914;-60
2022/07/16 05:54:10;;;;;;;;;;;;;;;23.00;44.60;102219.28;7285273;19;152062;-60
2022/07/16 05:56:36;;;;;;;;;;;;;;;23.00;44.79;102222.94;7282440;19;154152;-59
2022/07/16 05:59:03;;;;;;;;;;;;;;;23.04;44.53;102226.00;7282260;19;152663;-59
2022/07/16 06:01:30;;;;;;;;;;;;;;;23.02;44.38;102225.47;7293003;19;152737;-60
2022/07/16 06:03:56;;;;;;;;;;;;;;;23.17;44.40;102230.97;7284577;19;154092;-59
2022/07/16 06:06:23;;;;;;;;;;;;;;;23.09;44.55;102240.06;7283767;19;151770;-59
2022/07/16 06:08:51;;;;;;;;;;;;;;;23.04;44.46;102228.81;7285806;19;152811;-59
2022/07/16 06:11:17;;;;;;;;;;;;;;;23.04;44.17;102238.13;7283192;19;153924;-59
2022/07/16 06:13:44;;;;;;;;;;;;;;;22.97;44.21;102229.16;7284844;19;152434;-59
2022/07/16 06:16:11;;;;;;;;;;;;;;;22.99;44.28;102238.16;7282504;19;152873;-59
2022/07/16 06:18:37;;;;;;;;;;;;;;;22.98;43.85;102233.69;7284906;19;153865;-59
2022/07/16 06:21:04;;;;;;;;;;;;;;;23.01;44.11;102232.25;7288530;19;152698;-59
2022/07/16 06:23:31;;;;;;;;;;;;;;;23.05;43.95;102230.50;7283625;19;153106;-59
2022/07/16 06:25:58;;;;;;;;;;;;;;;23.05;44.31;102234.16;7282575;19;152317;-60
2022/07/16 06:28:24;;;;;;;;;;;;;;;23.03;44.10;102238.44;7284225;19;152568;-59
2022/07/16 06:30:51;;;;;;;;;;;;;;;22.98;44.01;102246.94;7282229;19;153242;-59
2022/07/16 06:33:18;;;;;;;;;;;;;;;23.17;43.64;102247.88;7285702;19;152259;-60
2022/07/16 06:35:45;;;;;;;;;;;;;;;23.06;43.88;102246.28;7281863;19;152841;-60
2022/07/16 06:38:12;;;;;;;;;;;;;;;23.15;43.83;102250.16;7283779;19;153449;-60
2022/07/16 06:40:43;;;;;;;;;;;;;;;23.04;43.96;102254.19;7281276;19;152628;-60
2022/07/16 06:43:09;;;;;;;;;;;;;;;23.02;44.25;102254.50;7288912;19;152878;-61
2022/07/16 06:45:37;;;;;;;;;;;;;;;22.96;44.38;102261.31;7280699;19;152626;-61
2022/07/16 06:48:03;;;;;;;;;;;;;;;22.97;44.29;102262.16;7281449;19;153056;-60
2022/07/16 06:50:30;;;;;;;;;;;;;;;23.05;44.29;102255.88;7281619;19;154131;-60
2022/07/16 06:52:57;;;;;;;;;;;;;;;23.01;43.95;102266.91;7284445;19;154606;-60
2022/07/16 06:55:23;;;;;;;;;;;;;;;23.02;44.31;102254.50;7282461;19;152633;-59
2022/07/16 06:57:50;;;;;;;;;;;;;;;22.99;44.34;102255.06;7282943;19;154372;-60
2022/07/16 07:00:19;;;;;;;;;;;;;;;23.04;44.14;102259.81;7283316;19;152555;-60
2022/07/16 07:03:02;;;;;;;;;;;;;;;23.01;43.95;102266.06;7282196;19;152866;-60
2022/07/16 07:05:44;;;;;;;;;;;;;;;23.09;43.68;102273.03;7288017;19;153128;-60
2022/07/16 07:08:11;;;;;;;;;;;;;;;23.00;44.18;102267.19;7284568;19;152930;-60
2022/07/16 07:10:38;;;;;;;;;;;;;;;22.98;44.15;102270.31;7280083;19;154863;-59
2022/07/16 07:13:05;;;;;;;;;;;;;;;23.01;44.53;102268.88;7283875;19;152145;-59
2022/07/16 07:15:31;;;;;;;;;;;;;;;23.00;44.47;102272.84;7279765;19;152811;-59
2022/07/16 07:17:58;;;;;;;;;;;;;;;23.00;44.29;102273.69;7283556;19;153871;-59
2022/07/16 07:20:25;;;;;;;;;;;;;;;23.05;43.92;102267.16;7282868;19;154299;-59
2022/07/16 07:22:52;;;;;;;;;;;;;;;23.03;44.22;102273.09;7283474;19;154105;-59
2022/07/16 07:25:19;;;;;;;;;;;;;;;23.05;44.51;102273.63;7281409;19;153663;-59
2022/07/16 07:27:46;;;;;;;;;;;;;;;23.03;44.30;102286.34;7290227;19;152514;-59
2022/07/16 07:30:12;;;;;;;;;;;;;;;23.07;44.28;102279.00;7280673;19;153299;-59
2022/07/16 07:32:39;;;;;;;;;;;;;;;23.08;44.51;102289.13;7281538;19;152213;-59
2022/07/16 07:35:06;;;;;;;;;;;;;;;23.04;44.36;102286.03;7282702;19;152387;-59
2022/07/16 07:37:33;;;;;;;;;;;;;;;23.06;44.37;102288.59;7278154;19;152510;-59
2022/07/16 07:40:02;;;;;;;;;;;;;;;23.02;44.37;102281.84;7282616;19;152770;-59
2022/07/16 07:42:28;;;;;;;;;;;;;;;23.05;44.63;102287.75;7282109;19;155505;-59
2022/07/16 07:44:55;;;;;;;;;;;;;;;23.19;44.36;102287.06;7278175;19;154236;-59
2022/07/16 07:47:22;;;;;;;;;;;;;;;23.19;43.77;102287.91;7282338;19;152189;-59
2022/07/16 07:49:50;;;;;;;;;;;;;;;23.06;44.18;102294.22;7289749;19;153369;-59
2022/07/16 07:52:16;;;;;;;;;;;;;;;23.02;44.16;102293.13;7279356;19;153105;-60
2022/07/16 07:54:43;;;;;;;;;;;;;;;23.02;44.55;102290.31;7282072;19;153349;-59
2022/07/16 07:57:10;;;;;;;;;;;;;;;23.04;44.55;102291.69;7277310;19;153923;-59
2022/07/16 07:59:36;;;;;;;;;;;;;;;23.08;44.13;102291.94;7280927;19;152935;-60
2022/07/16 08:02:03;;;;;;;;;;;;;;;23.11;44.17;102296.16;7279491;19;153486;-59
2022/07/16 08:04:30;;;;;;;;;;;;;;;23.14;44.08;102290.78;7281658;19;153851;-60
2022/07/16 08:06:57;;;;;;;;;;;;;;;23.06;43.78;102302.69;7280411;19;152207;-60
2022/07/16 08:09:23;;;;;;;;;;;;;;;23.04;44.34;102307.75;7282537;19;153767;-59
2022/07/16 08:11:50;;;;;;;;;;;;;;;23.07;44.21;102304.38;7287295;19;152276;-60
2022/07/16 08:14:17;;;;;;;;;;;;;;;23.16;44.22;102296.13;7280191;19;153171;-59
2022/07/16 08:16:55;;;;;;;;;;;;;;;23.12;43.70;102303.50;7278219;19;153952;-59
2022/07/16 08:19:22;;;;;;;;;;;;;;;23.04;44.01;102302.13;7281329;19;151961;-59
2022/07/16 08:21:48;;;;;;;;;;;;;;;23.03;44.15;102300.47;7280200;19;152087;-59
2022/07/16 08:27:01;;;;;;;;;;;;;;;23.12;43.45;102292.22;7280506;19;152439;-59
2022/07/16 08:29:27;;;;;;;;;;;;;;;23.09;43.85;102295.59;7280322;19;153512;-59
2022/07/16 08:31:54;;;;;;;;;;;;;;;23.06;44.15;102294.22;7288244;19;154140;-59
2022/07/16 08:34:24;;;;;;;;;;;;;;;23.08;43.69;102291.94;7281296;19;153653;-59
2022/07/16 08:36:52;;;;;;;;;;;;;;;23.16;43.79;102299.78;7276947;19;153546;-58
2022/07/16 08:39:19;;;;;;;;;;;;;;;23.09;44.07;102295.59;7280467;19;155879;-59
2022/07/16 08:41:46;;;;;;;;;;;;;;;23.02;44.00;102302.44;7280749;19;153070;-59
2022/07/16 08:44:13;;;;;;;;;;;;;;;23.03;43.86;102298.44;7278356;19;153821;-58
2022/07/16 08:46:41;;;;;;;;;;;;;;;23.10;44.21;102298.13;7280579;19;151857;-59
2022/07/16 08:49:08;;;;;;;;;;;;;;;23.04;44.26;102296.47;7281648;19;152606;-59
2022/07/16 08:51:36;;;;;;;;;;;;;;;23.07;44.21;102295.06;7278619;19;153461;-59
2022/07/16 08:54:13;;;;;;;;;;;;;;;23.10;44.46;102292.50;7286857;19;152391;-59
2022/07/16 08:56:42;;;;;;;;;;;;;;;23.09;44.00;102296.44;7276536;19;153746;-59
2022/07/16 08:59:09;;;;;;;;;;;;;;;23.10;44.36;102297.28;7279005;19;152231;-60
2022/07/16 09:01:36;;;;;;;;;;;;;;;23.15;44.10;102305.72;7277977;19;153317;-60
2022/07/16 09:04:03;;;;;;;;;;;;;;;23.10;44.28;102303.78;7279621;19;155320;-60
2022/07/16 09:06:30;;;;;;;;;;;;;;;23.16;44.30;102305.44;7278775;19;152925;-60
2022/07/16 09:08:57;;;;;;;;;;;;;;;23.17;44.09;102301.44;7280390;19;153158;-60
2022/07/16 09:11:25;;;;;;;;;;;;;;;23.17;43.93;102298.63;7276217;19;152623;-59
2022/07/16 09:14:07;;;;;;;;;;;;;;;23.15;44.26;102300.06;7279335;19;151926;-59
2022/07/16 09:16:38;;;;;;;;;;;;;;;23.18;44.29;102297.50;7284433;19;153155;-59
2022/07/16 09:19:10;;;;;;;;;;;;;;;23.45;43.85;102299.84;7280499;19;152988;-59
2022/07/16 09:21:56;;;;;;;;;;;;;;;23.38;43.59;102297.34;7278913;19;153449;-59
2022/07/16 09:24:32;;;;;;;;;;;;;;;23.30;43.44;102295.19;7277321;19;153071;-59
2022/07/16 09:27:00;;;;;;;;;;;;;;;23.27;43.74;102297.72;7275872;19;152264;-59
2022/07/16 09:29:26;;;;;;;;;;;;;;;23.32;43.82;102294.84;7279450;19;153137;-60
2022/07/16 09:31:54;;;;;;;;;;;;;;;23.39;44.08;102301.84;7278199;19;153161;-60
2022/07/16 09:34:21;;;;;;;;;;;;;;;23.48;43.27;102297.28;7278909;19;153646;-59
2022/07/16 09:36:56;;;;;;;;;;;;;;;23.34;43.75;102298.25;7277811;19;153474;-59
2022/07/16 09:39:23;;;;;;;;;;;;;;;23.33;43.70;102293.72;7284977;19;153270;-59
2022/07/16 09:41:50;;;;;;;;;;;;;;;23.35;43.43;102302.72;7278785;19;154308;-59
2022/07/16 09:44:20;;;;;;;;;;;;;;;23.41;43.38;102302.41;7275008;19;154135;-60
2022/07/16 09:46:57;;;;;;;;;;;;;;;23.41;43.38;102295.91;7279589;19;152928;-59
2022/07/16 09:49:24;;;;;;;;;;;;;;;23.42;43.22;102309.72;7279077;19;153617;-60
2022/07/16 09:51:51;;;;;;;;;;;;;;;23.40;43.30;102306.34;7274119;19;152368;-59
2022/07/16 09:54:31;;;;;;;;;;;;;;;23.40;43.13;102305.50;7278199;19;152104;-59
2022/07/16 09:57:25;;;;;;;;;;;;;;;23.49;43.18;102309.41;7273689;19;152530;-60
2022/07/16 09:59:53;;;;;;;;;;;;;;;23.50;43.18;102308.28;7275860;19;153294;-60
2022/07/16 10:02:27;;;;;;;;;;;;;;;23.57;42.96;102307.94;7284691;19;152562;-60
2022/07/16 10:04:54;;;;;;;;;;;;;;;23.57;43.62;102297.50;7274353;19;153967;-60
2022/07/16 10:07:33;;;;;;;;;;;;;;;23.65;43.89;102305.31;7277811;19;155765;-60
2022/07/16 10:10:00;;;;;;;;;;;;;;;23.70;44.26;102299.63;7278522;19;152484;-60
2022/07/16 10:12:29;;;;;;;;;;;;;;;23.74;43.88;102297.91;7276413;19;153766;-59
2022/07/16 10:14:57;;;;;;;;;;;;;;;23.79;44.78;102302.66;7277687;19;151933;-60
2022/07/16 10:17:35;;;;;;;;;;;;;;;23.82;44.29;102302.88;7276375;19;153307;-60
2022/07/16 10:20:11;;;;;;;;;;;;;;;23.87;43.54;102308.47;7274466;19;153932;-60
2022/07/16 10:22:42;;;;;;;;;;;;;;;23.91;43.49;102294.59;7285662;19;152410;-59
2022/07/16 10:25:12;;;;;;;;;;;;;;;23.97;43.34;102307.53;7283839;19;153473;-60
2022/07/16 10:27:38;;;;;;;;;;;;;;;24.01;43.49;102302.97;7283464;19;151969;-59
2022/07/16 10:30:08;;;;;;;;;;;;;;;24.05;42.98;102303.19;7283396;19;152560;-61
2022/07/16 10:32:53;;;;;;;;;;;;;;;24.07;43.04;102298.97;7283895;19;154892;-60
2022/07/16 10:35:32;;;;;;;;;;;;;;;24.08;42.42;102305.41;7283932;19;152815;-60
2022/07/16 10:38:09;;;;;;;;;;;;;;;24.12;42.28;102300.88;7282936;19;153668;-61
2022/07/16 10:41:05;;;;;;;;;;;;;;;24.12;42.24;102301.69;7282049;19;152806;-61
2022/07/16 10:43:33;;;;;;;;;;;;;;;24.14;42.35;102293.78;7284249;19;152360;-61
2022/07/16 10:46:09;;;;;;;;;;;;;;;24.20;42.81;102295.44;7288779;19;153511;-60
2022/07/16 10:48:36;;;;;;;;;;;;;;;24.24;42.23;102292.84;7285229;19;152019;-60
2022/07/16 10:51:12;;;;;;;;;;;;;;;24.24;42.03;102292.84;7282605;19;153216;-60
2022/07/16 10:53:58;;;;;;;;;;;;;;;24.28;42.05;102296.75;7278688;19;154939;-59
2022/07/16 10:56:35;;;;;;;;;;;;;;;24.29;42.00;102287.13;7282668;19;152359;-61
2022/07/16 10:59:03;;;;;;;;;;;;;;;24.33;42.11;102291.88;7279950;19;152483;-61
2022/07/16 11:01:30;;;;;;;;;;;;;;;24.37;42.52;102286.47;7281191;19;153753;-60
2022/07/16 11:03:57;;;;;;;;;;;;;;;24.40;41.94;102294.31;7283520;19;151917;-60
2022/07/16 11:06:23;;;;;;;;;;;;;;;24.42;42.19;102292.06;7281423;19;152130;-60
2022/07/16 11:08:53;;;;;;;;;;;;;;;24.45;42.14;102287.78;7289240;19;152470;-60
2022/07/16 11:11:20;;;;;;;;;;;;;;;24.50;42.28;102290.53;7283419;19;152787;-60
2022/07/16 11:13:47;;;;;;;;;;;;;;;24.51;42.03;102292.22;7282986;19;153848;-60
2022/07/16 11:16:14;;;;;;;;;;;;;;;24.50;41.47;102290.53;7282051;19;152938;-61
2022/07/16 11:18:42;;;;;;;;;;;;;;;24.51;40.95;102284.59;7281708;19;153953;-60
2022/07/16 11:21:09;;;;;;;;;;;;;;;24.54;40.67;102283.13;7280718;19;153217;-61
2022/07/16 11:23:54;;;;;;;;;;;;;;;24.57;41.43;102283.38;7282374;19;153105;-60
2022/07/16 11:26:21;;;;;;;;;;;;;;;24.60;41.81;102284.75;7281811;19;154046;-60
2022/07/16 11:28:55;;;;;;;;;;;;;;;24.63;42.03;102287.78;7282563;19;153216;-61
2022/07/16 11:31:24;;;;;;;;;;;;;;;24.64;41.34;102278.19;7289304;19;152369;-60
2022/07/16 11:33:56;;;;;;;;;;;;;;;24.68;41.36;102282.06;7279510;19;154651;-61
2022/07/16 11:36:33;;;;;;;;;;;;;;;24.71;41.12;102281.47;7282131;19;152201;-60
2022/07/16 11:39:16;;;;;;;;;;;;;;;24.72;40.82;102271.84;7279742;19;152462;-62
2022/07/16 11:41:45;;;;;;;;;;;;;;;24.80;41.07;102276.78;7280728;19;152747;-61
2022/07/16 11:44:12;;;;;;;;;;;;;;;24.84;41.05;102267.72;7281612;19;152458;-61
2022/07/16 11:46:42;;;;;;;;;;;;;;;24.85;40.99;102278.72;7282121;19;154447;-59
2022/07/16 11:49:09;;;;;;;;;;;;;;;24.89;41.15;102271.34;7281105;19;153323;-61
2022/07/16 11:51:41;;;;;;;;;;;;;;;24.84;41.03;102270.56;7281387;19;153049;-61
2022/07/16 11:54:08;;;;;;;;;;;;;;;24.81;41.24;102272.00;7287158;19;152601;-60
2022/07/16 11:56:36;;;;;;;;;;;;;;;24.77;41.25;102271.75;7282664;19;152131;-60
2022/07/16 11:59:14;;;;;;;;;;;;;;;24.75;41.33;102278.88;7279070;19;152900;-60
2022/07/16 12:01:41;;;;;;;;;;;;;;;24.73;41.62;102273.53;7280275;19;153281;-60
2022/07/16 12:04:08;;;;;;;;;;;;;;;24.73;41.69;102267.03;7282507;19;152255;-61
2022/07/16 12:06:35;;;;;;;;;;;;;;;24.73;41.89;102269.84;7280356;19;152547;-61
2022/07/16 12:09:02;;;;;;;;;;;;;;;24.71;41.47;102266.50;7280972;19;153825;-60
2022/07/16 12:11:32;;;;;;;;;;;;;;;24.68;41.54;102259.47;7280802;19;152112;-60
2022/07/16 12:14:00;;;;;;;;;;;;;;;24.67;41.80;102256.94;7281555;19;152608;-61
2022/07/16 12:16:27;;;;;;;;;;;;;;;24.66;41.57;102258.94;7287789;19;153838;-60
2022/07/16 12:19:12;;;;;;;;;;;;;;;24.67;41.78;102266.25;7280783;19;153404;-60
2022/07/16 12:21:40;;;;;;;;;;;;;;;24.69;41.87;102263.13;7280385;19;153440;-60
2022/07/16 12:24:07;;;;;;;;;;;;;;;24.70;41.83;102264.81;7280792;19;153066;-60
2022/07/16 12:26:38;;;;;;;;;;;;;;;24.73;42.01;102265.03;7281348;19;153244;-61
2022/07/16 12:29:06;;;;;;;;;;;;;;;24.79;40.71;102263.00;7279239;19;153440;-60
2022/07/16 12:31:34;;;;;;;;;;;;;;;24.77;40.74;102256.78;7281917;19;152648;-61
2022/07/16 12:34:02;;;;;;;;;;;;;;;24.81;40.62;102260.69;7281790;19;154682;-61
2022/07/16 12:36:30;;;;;;;;;;;;;;;24.82;41.07;102259.53;7287100;19;154268;-60
2022/07/16 12:39:02;;;;;;;;;;;;;;;24.81;40.94;102258.69;7278598;19;153280;-60
2022/07/16 12:41:30;;;;;;;;;;;;;;;24.83;40.96;102255.56;7277515;19;152734;-61